createdAt,value
2019-02-11T00:36:10.214Z,96773.78
2019-02-11T00:38:41.327Z,96770.95
2019-02-11T00:41:12.298Z,96782.56
2019-02-11T00:43:43.296Z,96780.69
2019-02-11T00:46:14.402Z,96787.13
2019-02-11T00:48:45.280Z,96784.84
2019-02-11T00:51:16.234Z,96781.36
2019-02-11T00:53:47.827Z,96777.67
2019-02-11T00:56:18.894Z,96792.12
2019-02-11T00:58:49.862Z,96779.75
2019-02-11T01:01:20.745Z,96785.95
2019-02-11T01:03:51.793Z,96781.29
2019-02-11T01:06:22.781Z,96786.39
2019-02-11T01:08:53.675Z,96792.73
2019-02-11T01:11:24.649Z,96783.36
2019-02-11T01:13:55.546Z,96739.36
2019-02-11T01:16:26.585Z,96784.95
2019-02-11T01:18:57.529Z,96772.62
2019-02-11T01:21:28.469Z,96770.83
2019-02-11T01:23:59.467Z,96776.95
2019-02-11T01:26:30.365Z,96785.98
2019-02-11T01:29:01.387Z,96783.15
2019-02-11T01:31:32.351Z,96812.04
2019-02-11T01:34:03.245Z,96784.30
2019-02-11T01:36:34.178Z,96789.85
2019-02-11T01:39:06.268Z,96784.44
2019-02-11T01:41:37.129Z,96792.27
2019-02-11T01:44:08.075Z,96784.84
2019-02-11T01:46:38.984Z,96776.89
2019-02-11T01:49:09.927Z,96806.91
2019-02-11T01:51:40.783Z,96802.64
2019-02-11T01:54:11.675Z,96816.84
2019-02-11T01:56:42.695Z,96807.52
2019-02-11T01:59:13.571Z,96807.75
2019-02-11T02:01:44.439Z,96810.38
2019-02-11T02:04:15.356Z,96799.72
2019-02-11T02:06:46.229Z,96815.80
2019-02-11T02:09:17.359Z,96803.30
2019-02-11T02:11:48.386Z,96814.12
2019-02-11T02:14:19.265Z,96808.31
2019-02-11T02:16:50.148Z,96819.53
2019-02-11T02:19:21.059Z,96823.80
2019-02-11T02:21:52.075Z,96811.39
2019-02-11T02:24:23.106Z,96851.59
2019-02-11T02:26:54.153Z,96831.39
2019-02-11T02:29:25.099Z,96815.91
2019-02-11T02:31:55.963Z,96820.73
2019-02-11T02:34:26.828Z,96832.80
2019-02-11T02:36:57.712Z,96829.06
2019-02-11T02:39:28.857Z,96823.12
2019-02-11T02:41:59.806Z,96834.78
2019-02-11T02:44:30.808Z,96839.19
2019-02-11T02:47:01.722Z,96850.01
2019-02-11T02:49:32.585Z,96834.13
2019-02-11T02:52:03.534Z,96863.96
2019-02-11T02:54:34.539Z,96824.17
2019-02-11T02:57:05.807Z,96839.20
2019-02-11T02:59:36.780Z,96841.04
2019-02-11T03:02:07.719Z,96854.52
2019-02-11T03:04:38.594Z,96863.70
2019-02-11T03:07:09.544Z,96882.49
2019-02-11T03:09:40.452Z,96842.77
2019-02-11T03:12:11.364Z,96885.64
2019-02-11T03:14:42.300Z,96858.98
2019-02-11T03:17:13.248Z,96901.05
2019-02-11T03:19:44.206Z,96884.61
2019-02-11T03:22:15.138Z,96890.98
2019-02-11T03:24:46.008Z,96890.40
2019-02-11T03:27:17.056Z,96911.18
2019-02-11T03:29:47.990Z,96913.17
2019-02-11T03:32:18.956Z,96921.95
2019-02-11T03:34:49.833Z,96931.95
2019-02-11T03:37:24.670Z,96936.59
2019-02-11T03:39:55.654Z,96948.66
2019-02-11T03:42:26.591Z,96957.35
2019-02-11T03:44:57.608Z,96962.70
2019-02-11T03:47:28.545Z,96960.33
2019-02-11T03:49:59.470Z,96960.86
2019-02-11T03:52:30.441Z,96996.64
2019-02-11T03:55:01.420Z,96999.74
2019-02-11T03:57:32.469Z,97008.83
2019-02-11T04:00:03.498Z,97020.88
2019-02-11T04:02:34.463Z,97030.41
2019-02-11T04:05:06.995Z,97063.94
2019-02-11T04:07:38.030Z,97048.69
2019-02-11T04:10:10.845Z,97069.81
2019-02-11T04:12:41.861Z,97068.16
2019-02-11T04:15:12.944Z,97076.06
2019-02-11T04:17:43.853Z,97075.33
2019-02-11T04:20:14.948Z,97074.14
2019-02-11T04:22:45.852Z,97079.84
2019-02-11T04:25:16.889Z,97113.81
2019-02-11T04:27:47.834Z,97089.02
2019-02-11T04:30:18.709Z,97112.87
2019-02-11T04:32:49.692Z,97119.91
2019-02-11T04:35:20.542Z,97129.18
2019-02-11T04:37:51.529Z,97137.47
2019-02-11T04:40:22.548Z,97138.82
2019-02-11T04:42:53.570Z,97142.78
2019-02-11T04:45:27.821Z,97144.67
2019-02-11T04:47:58.768Z,97155.90
2019-02-11T04:50:29.827Z,97164.48
2019-02-11T04:53:00.740Z,97164.83
2019-02-11T04:55:31.963Z,97183.17
2019-02-11T04:58:03.027Z,97193.86
2019-02-11T05:00:34.094Z,97190.98
2019-02-11T05:03:05.028Z,97212.42
2019-02-11T05:05:35.981Z,97207.41
2019-02-11T05:08:06.916Z,97217.47
2019-02-11T05:10:37.924Z,97227.97
2019-02-11T05:13:08.865Z,97230.12
2019-02-11T05:15:39.959Z,97238.51
2019-02-11T05:18:10.951Z,97253.43
2019-02-11T05:20:41.936Z,97249.75
2019-02-11T05:23:12.916Z,97260.30
2019-02-11T05:25:43.926Z,97262.02
2019-02-11T05:28:14.818Z,97257.66
2019-02-11T05:30:45.685Z,97272.17
2019-02-11T05:33:17.022Z,97277.75
2019-02-11T05:35:48.053Z,97277.75
2019-02-11T05:38:19.000Z,97292.31
2019-02-11T05:40:50.125Z,97278.59
2019-02-11T05:43:20.984Z,97299.44
2019-02-11T05:45:52.002Z,97298.19
2019-02-11T05:48:22.899Z,97301.58
2019-02-11T05:50:53.857Z,97296.84
2019-02-11T05:53:26.199Z,97307.48
2019-02-11T05:55:57.131Z,97301.88
2019-02-11T05:58:28.151Z,97312.13
2019-02-11T06:00:59.651Z,97325.44
2019-02-11T06:03:31.367Z,97327.59
2019-02-11T06:06:05.583Z,97341.27
2019-02-11T06:08:39.189Z,97338.67
2019-02-11T06:11:13.079Z,97347.64
2019-02-11T06:13:43.987Z,97352.83
2019-02-11T06:16:16.552Z,97353.24
2019-02-11T06:18:47.481Z,97355.38
2019-02-11T06:21:18.408Z,97372.10
2019-02-11T06:23:49.501Z,97375.49
2019-02-11T06:26:20.398Z,97372.48
2019-02-11T06:28:51.323Z,97384.35
2019-02-11T06:31:22.190Z,97387.66
2019-02-11T06:33:53.162Z,97395.37
2019-02-11T06:36:24.357Z,97405.14
2019-02-11T06:38:55.373Z,97396.61
2019-02-11T06:41:26.348Z,97423.55
2019-02-11T06:43:57.539Z,97421.77
2019-02-11T06:46:29.279Z,97435.03
2019-02-11T06:49:00.249Z,97446.50
2019-02-11T06:51:31.280Z,97440.84
2019-02-11T06:54:02.397Z,97452.80
2019-02-11T06:56:33.293Z,97459.58
2019-02-11T06:59:04.281Z,97456.92
2019-02-11T07:01:35.207Z,97467.52
2019-02-11T07:04:06.227Z,97474.66
2019-02-11T07:06:37.109Z,97485.28
2019-02-11T07:09:08.056Z,97491.21
2019-02-11T07:11:38.975Z,97492.42
2019-02-11T07:14:10.252Z,97494.03
2019-02-11T07:16:41.991Z,97507.25
2019-02-11T07:19:13.666Z,97517.41
2019-02-11T07:21:45.244Z,97515.22
2019-02-11T07:24:19.146Z,97513.06
2019-02-11T07:26:50.722Z,97519.84
2019-02-11T07:29:22.438Z,97524.97
2019-02-11T07:31:54.073Z,97533.09
2019-02-11T07:34:25.836Z,97533.92
2019-02-11T07:36:57.521Z,97542.84
2019-02-11T07:39:29.257Z,97558.69
2019-02-11T07:42:20.537Z,97561.66
2019-02-11T07:44:53.242Z,97574.06
2019-02-11T07:47:24.776Z,97573.26
2019-02-11T07:49:57.102Z,97577.04
2019-02-11T07:52:28.443Z,97582.47
2019-02-11T07:54:59.339Z,97588.32
2019-02-11T07:57:30.368Z,97599.86
2019-02-11T08:00:01.267Z,97606.62
2019-02-11T08:02:32.148Z,97615.87
2019-02-11T08:05:03.253Z,97624.42
2019-02-11T08:07:34.361Z,97596.56
2019-02-11T08:10:07.468Z,97614.09
2019-02-11T08:12:38.486Z,97620.15
2019-02-11T08:15:10.012Z,97619.69
2019-02-11T08:17:40.964Z,97617.14
2019-02-11T08:20:11.976Z,97617.66
2019-02-11T08:22:42.978Z,97630.84
2019-02-11T08:25:13.922Z,97627.82
2019-02-11T08:27:44.812Z,97641.58
2019-02-11T08:30:15.758Z,97638.64
2019-02-11T08:32:46.820Z,97648.09
2019-02-11T08:35:17.754Z,97651.11
2019-02-11T08:37:48.802Z,97657.55
2019-02-11T08:40:19.690Z,97670.86
2019-02-11T08:42:50.656Z,97653.27
2019-02-11T08:45:21.646Z,97662.64
2019-02-11T08:47:52.509Z,97674.64
2019-02-11T08:50:23.551Z,97666.50
2019-02-11T08:52:54.434Z,97669.11
2019-02-11T08:55:25.442Z,97679.66
2019-02-11T08:57:56.406Z,97672.42
2019-02-11T09:00:27.306Z,97688.39
2019-02-11T09:02:58.702Z,97691.30
2019-02-11T09:05:29.667Z,97694.39
2019-02-11T09:08:00.985Z,97706.70
2019-02-11T09:10:31.986Z,97712.27
2019-02-11T09:13:03.041Z,97716.08
2019-02-11T09:15:34.086Z,97713.88
2019-02-11T09:18:05.263Z,97739.11
2019-02-11T09:20:36.226Z,97746.31
2019-02-11T09:23:07.225Z,97730.00
2019-02-11T09:25:38.253Z,97736.62
2019-02-11T09:28:09.170Z,97742.81
2019-02-11T09:30:40.055Z,97745.66
2019-02-11T09:33:11.085Z,97768.91
2019-02-11T09:35:42.330Z,97778.31
2019-02-11T09:38:13.373Z,97771.08
2019-02-11T09:40:44.358Z,97782.59
2019-02-11T09:43:15.234Z,97775.63
2019-02-11T09:45:46.374Z,97790.30
2019-02-11T09:48:17.392Z,97794.61
2019-02-11T09:50:49.224Z,97797.05
2019-02-11T09:53:20.232Z,97810.05
2019-02-11T09:55:51.197Z,97807.94
2019-02-11T09:58:22.137Z,97785.95
2019-02-11T10:00:53.180Z,97809.01
2019-02-11T10:03:24.119Z,97821.93
2019-02-11T10:05:55.093Z,97821.62
2019-02-11T10:08:26.237Z,97829.09
2019-02-11T10:10:57.427Z,97806.91
2019-02-11T10:13:28.485Z,97838.05
2019-02-11T10:15:59.375Z,97851.56
2019-02-11T10:18:30.271Z,97860.33
2019-02-11T10:21:01.270Z,97863.45
2019-02-11T10:23:32.152Z,97873.34
2019-02-11T10:26:03.157Z,97872.38
2019-02-11T10:28:34.147Z,97878.22
2019-02-11T10:31:05.241Z,97876.86
2019-02-11T10:33:36.279Z,97891.95
2019-02-11T10:36:07.343Z,97893.81
2019-02-11T10:38:38.379Z,97894.48
2019-02-11T10:41:09.308Z,97902.73
2019-02-11T10:43:40.279Z,97881.93
2019-02-11T10:46:11.375Z,97902.93
2019-02-11T10:48:42.383Z,97903.03
2019-02-11T10:51:13.575Z,97919.37
2019-02-11T10:53:45.081Z,97914.76
2019-02-11T10:56:16.187Z,97910.39
2019-02-11T10:58:47.161Z,97907.81
2019-02-11T11:01:18.155Z,97913.36
2019-02-11T11:03:49.157Z,97905.31
2019-02-11T11:06:20.121Z,97921.86
2019-02-11T11:08:51.138Z,97927.02
2019-02-11T11:11:22.205Z,97928.44
2019-02-11T11:13:53.246Z,97936.77
2019-02-11T11:16:29.645Z,97935.45
2019-02-11T11:18:57.001Z,97936.17
2019-02-11T11:21:27.930Z,97935.71
2019-02-11T11:23:59.103Z,97932.72
2019-02-11T11:26:30.034Z,97935.45
2019-02-11T11:29:01.049Z,97938.42
2019-02-11T11:31:32.099Z,97947.03
2019-02-11T11:34:03.115Z,97946.67
2019-02-11T11:36:34.148Z,97949.97
2019-02-11T11:39:07.301Z,97945.30
2019-02-11T11:41:38.245Z,97961.68
2019-02-11T11:44:09.278Z,97975.32
2019-02-11T11:46:46.907Z,97981.41
2019-02-11T11:49:12.973Z,97970.95
2019-02-11T11:51:43.844Z,97977.24
2019-02-11T11:54:14.935Z,97982.22
2019-02-11T11:56:46.025Z,97985.11
2019-02-11T11:59:16.996Z,97987.09
2019-02-11T12:01:47.882Z,97982.30
2019-02-11T12:04:18.944Z,97983.22
2019-02-11T12:06:50.085Z,97985.37
2019-02-11T12:09:21.293Z,97988.64
2019-02-11T12:11:52.269Z,97994.66
2019-02-11T12:14:23.208Z,98003.69
2019-02-11T12:16:59.672Z,98006.02
2019-02-11T12:19:26.739Z,98016.48
2019-02-11T12:21:57.745Z,98008.05
2019-02-11T12:24:28.791Z,98020.64
2019-02-11T12:26:59.687Z,98013.86
2019-02-11T12:29:30.575Z,98011.41
2019-02-11T12:32:01.574Z,98028.27
2019-02-11T12:34:32.615Z,98023.45
2019-02-11T12:37:03.480Z,98021.66
2019-02-11T12:39:34.433Z,98026.73
2019-02-11T12:42:05.396Z,98021.05
2019-02-11T12:44:36.274Z,98019.89
2019-02-11T12:47:14.081Z,98021.19
2019-02-11T12:49:39.870Z,98013.11
2019-02-11T12:52:10.833Z,98021.38
2019-02-11T12:54:41.804Z,98030.32
2019-02-11T12:57:12.752Z,98012.62
2019-02-11T12:59:43.749Z,98036.34
2019-02-11T13:02:14.703Z,98036.23
2019-02-11T13:04:45.688Z,98039.73
2019-02-11T13:07:16.658Z,98040.39
2019-02-11T13:09:47.689Z,98034.21
2019-02-11T13:12:18.642Z,98057.95
2019-02-11T13:14:49.601Z,98028.28
2019-02-11T13:17:33.501Z,98040.86
2019-02-11T13:20:07.913Z,98042.33
2019-02-11T13:22:26.018Z,98044.59
2019-02-11T13:24:57.033Z,98058.48
2019-02-11T13:27:28.063Z,98058.09
2019-02-11T13:29:58.976Z,98068.84
2019-02-11T13:32:29.867Z,98053.90
2019-02-11T13:35:00.900Z,98075.42
2019-02-11T13:37:31.854Z,98083.97
2019-02-11T13:40:02.805Z,98079.84
2019-02-11T13:42:33.799Z,98099.55
2019-02-11T13:45:08.015Z,98079.30
2019-02-11T13:47:51.828Z,98072.51
2019-02-11T13:50:14.675Z,98093.84
2019-02-11T13:52:45.779Z,98078.45
2019-02-11T13:55:16.729Z,98110.36
2019-02-11T13:57:47.817Z,98096.97
2019-02-11T14:00:26.042Z,98112.03
2019-02-11T14:02:58.391Z,98118.33
2019-02-11T14:05:30.475Z,98116.53
2019-02-11T14:08:05.928Z,98129.98
2019-02-11T14:10:40.528Z,98143.53
2019-02-11T14:13:11.531Z,98147.93
2019-02-11T14:15:43.901Z,98147.98
2019-02-11T14:18:15.976Z,98150.62
2019-02-11T14:20:50.055Z,98156.56
2019-02-11T14:23:33.705Z,98168.93
2019-02-11T14:26:05.486Z,98154.17
2019-02-11T14:28:36.682Z,98165.31
2019-02-11T14:31:07.712Z,98173.17
2019-02-11T14:33:38.762Z,98171.52
2019-02-11T14:36:09.853Z,98188.80
2019-02-11T14:38:40.812Z,98186.19
2019-02-11T14:41:11.856Z,98192.78
2019-02-11T14:43:42.807Z,98204.84
2019-02-11T14:46:13.904Z,98216.08
2019-02-11T14:48:44.953Z,98214.86
2019-02-11T14:51:15.921Z,98208.43
2019-02-11T14:53:46.931Z,98223.88
2019-02-11T14:56:18.223Z,98227.23
2019-02-11T14:58:49.105Z,98232.43
2019-02-11T15:01:20.083Z,98244.11
2019-02-11T15:03:51.057Z,98214.03
2019-02-11T15:06:22.035Z,98254.83
2019-02-11T15:08:53.279Z,98256.07
2019-02-11T15:11:24.241Z,98265.98
2019-02-11T15:14:11.520Z,98263.83
2019-02-11T15:16:44.549Z,98260.38
2019-02-11T15:19:15.465Z,98255.66
2019-02-11T15:21:46.333Z,98276.74
2019-02-11T15:24:17.364Z,98287.08
2019-02-11T15:26:48.319Z,98273.77
2019-02-11T15:29:19.226Z,98275.02
2019-02-11T15:31:50.127Z,98284.53
2019-02-11T15:34:21.073Z,98284.61
2019-02-11T15:36:52.022Z,98285.94
2019-02-11T15:39:22.878Z,98287.63
2019-02-11T15:41:53.849Z,98293.25
2019-02-11T15:44:24.740Z,98301.84
2019-02-11T15:46:55.751Z,98301.40
2019-02-11T15:49:26.737Z,98315.17
2019-02-11T15:51:57.613Z,98319.84
2019-02-11T15:54:28.736Z,98327.14
2019-02-11T15:56:59.753Z,98328.06
2019-02-11T15:59:30.822Z,98328.94
2019-02-11T16:02:01.696Z,98341.91
2019-02-11T16:04:32.722Z,98344.00
2019-02-11T16:07:03.614Z,98344.37
2019-02-11T16:09:34.603Z,98332.74
2019-02-11T16:12:05.873Z,98345.24
2019-02-11T16:14:36.974Z,98343.56
2019-02-11T16:17:07.985Z,98350.13
2019-02-11T16:19:38.874Z,98357.09
2019-02-11T16:22:09.863Z,98356.23
2019-02-11T16:24:40.828Z,98362.69
2019-02-11T16:27:12.043Z,98357.94
2019-02-11T16:29:43.009Z,98344.08
2019-02-11T16:32:14.195Z,98363.02
2019-02-11T16:34:45.223Z,98366.89
2019-02-11T16:37:16.373Z,98367.41
2019-02-11T16:39:47.318Z,98369.48
2019-02-11T16:42:18.288Z,98383.21
2019-02-11T16:44:49.380Z,98366.84
2019-02-11T16:47:20.340Z,98387.09
2019-02-11T16:49:51.680Z,98395.25
2019-02-11T16:52:22.690Z,98364.75
2019-02-11T16:54:53.756Z,98419.41
2019-02-11T16:57:24.695Z,98401.34
2019-02-11T16:59:58.511Z,98391.63
2019-02-11T17:02:29.602Z,98405.43
2019-02-11T17:05:14.610Z,98414.38
2019-02-11T17:07:45.498Z,98438.47
2019-02-11T17:10:16.615Z,98420.51
2019-02-11T17:12:47.673Z,98441.91
2019-02-11T17:15:19.819Z,98450.12
2019-02-11T17:17:51.138Z,98447.95
2019-02-11T17:20:22.390Z,98444.02
2019-02-11T17:22:53.440Z,98451.75
2019-02-11T17:25:24.654Z,98451.61
2019-02-11T17:27:55.667Z,98457.20
2019-02-11T17:30:32.604Z,98474.07
2019-02-11T17:33:03.631Z,98469.39
2019-02-11T17:35:34.761Z,98457.78
2019-02-11T17:38:05.676Z,98484.50
2019-02-11T17:40:37.129Z,98453.55
2019-02-11T17:43:08.112Z,98450.09
2019-02-11T17:45:39.186Z,98498.22
2019-02-11T17:48:10.305Z,98495.62
2019-02-11T17:50:41.363Z,98505.63
2019-02-11T17:53:15.295Z,98517.98
2019-02-11T17:55:46.382Z,98550.57
2019-02-11T17:58:17.503Z,98550.92
2019-02-11T18:00:50.499Z,98558.35
2019-02-11T18:03:21.452Z,98569.58
2019-02-11T18:05:52.608Z,98567.44
2019-02-11T18:08:23.617Z,98569.59
2019-02-11T18:10:54.748Z,98572.65
2019-02-11T18:13:25.817Z,98580.84
2019-02-11T18:15:56.813Z,98586.00
2019-02-11T18:18:27.816Z,98590.34
2019-02-11T18:20:58.892Z,98605.41
2019-02-11T18:23:29.833Z,98616.61
2019-02-11T18:26:01.927Z,98612.82
2019-02-11T18:28:32.987Z,98611.13
2019-02-11T18:31:04.112Z,98621.03
2019-02-11T18:33:35.358Z,98630.92
2019-02-11T18:36:20.917Z,98642.50
2019-02-11T18:38:55.480Z,98645.95
2019-02-11T18:41:26.610Z,98650.67
2019-02-11T18:43:57.556Z,98653.67
2019-02-11T18:46:28.640Z,98658.81
2019-02-11T18:48:59.627Z,98664.83
2019-02-11T18:51:30.640Z,98669.98
2019-02-11T18:54:01.694Z,98670.42
2019-02-11T18:56:32.768Z,98683.27
2019-02-11T18:59:03.857Z,98686.72
2019-02-11T19:01:34.943Z,98698.30
2019-02-11T19:04:06.329Z,98696.58
2019-02-11T19:06:37.741Z,98702.56
2019-02-11T19:09:10.369Z,98712.86
2019-02-11T19:11:41.262Z,98714.59
2019-02-11T19:14:12.458Z,98720.56
2019-02-11T19:16:43.485Z,98721.44
2019-02-11T19:19:14.687Z,98726.56
2019-02-11T19:21:45.629Z,98736.85
2019-02-11T19:24:16.739Z,98742.41
2019-02-11T19:26:47.707Z,98744.98
2019-02-11T19:29:18.671Z,98749.28
2019-02-11T19:31:51.732Z,98755.27
2019-02-11T19:34:26.506Z,98760.41
2019-02-11T19:36:57.540Z,98766.84
2019-02-11T19:39:28.846Z,98773.71
2019-02-11T19:41:59.980Z,98777.58
2019-02-11T19:44:31.035Z,98778.41
2019-02-11T19:47:02.019Z,98777.59
2019-02-11T19:49:33.144Z,98782.30
2019-02-11T19:52:04.118Z,98786.61
2019-02-11T19:54:35.177Z,98781.02
2019-02-11T19:57:06.267Z,98782.73
2019-02-11T19:59:37.619Z,98788.75
2019-02-11T20:02:08.614Z,98792.59
2019-02-11T20:04:39.737Z,98796.03
2019-02-11T20:07:10.794Z,98793.89
2019-02-11T20:09:41.741Z,98799.47
2019-02-11T20:12:13.769Z,98798.59
2019-02-11T20:14:44.932Z,98814.06
2019-02-11T20:17:16.003Z,98828.63
2019-02-11T20:19:47.067Z,98835.89
2019-02-11T20:22:18.126Z,98841.06
2019-02-11T20:24:50.686Z,98832.02
2019-02-11T20:27:21.587Z,98839.75
2019-02-11T20:29:52.563Z,98843.58
2019-02-11T20:32:23.486Z,98851.27
2019-02-11T20:34:54.583Z,98844.88
2019-02-11T20:37:25.751Z,98845.30
2019-02-11T20:40:03.125Z,98849.59
2019-02-11T20:42:29.961Z,98862.89
2019-02-11T20:45:00.934Z,98856.03
2019-02-11T20:47:31.957Z,98875.31
2019-02-11T20:50:08.993Z,98880.03
2019-02-11T20:52:35.780Z,98880.87
2019-02-11T20:55:09.777Z,98895.81
2019-02-11T20:57:40.843Z,98895.41
2019-02-11T21:00:15.291Z,98893.25
2019-02-11T21:02:46.484Z,98898.41
2019-02-11T21:05:17.623Z,98899.25
2019-02-11T21:07:48.707Z,98900.11
2019-02-11T21:10:21.572Z,98893.67
2019-02-11T21:12:52.575Z,98910.34
2019-02-11T21:15:24.109Z,98912.89
2019-02-11T21:17:55.096Z,98914.17
2019-02-11T21:20:29.111Z,98919.75
2019-02-11T21:23:00.282Z,98917.16
2019-02-11T21:25:31.382Z,98911.66
2019-02-11T21:28:02.839Z,98920.25
2019-02-11T21:30:33.913Z,98912.96
2019-02-11T21:33:05.146Z,98918.94
2019-02-11T21:35:36.089Z,98915.91
